Time;durP1;ratioP1;P1;durP2;ratioP2;P2;SDS_P1;SDS_P2;PMS_P1;PMS_P2;Temp;Humidity;BMP_temperature;BMP_pressure;BME280_temperature;BME280_humidity;BME280_pressure;Samples;Min_cycle;Max_cycle;Signal;HPM_P1;HPM_P2
2023/08/18 00:01:20;;;;;;;5.05;3.30;;;21.80;99.90;;;;;;5068687;28;20243;-74
2023/08/18 00:03:48;;;;;;;3.65;3.45;;;21.80;99.90;;;;;;5088031;28;20657;-74
2023/08/18 00:06:16;;;;;;;3.42;3.05;;;21.80;99.90;;;;;;5070780;28;20205;-73
2023/08/18 00:08:44;;;;;;;3.42;3.08;;;21.80;99.90;;;;;;5071654;28;20236;-74
2023/08/18 00:11:12;;;;;;;3.88;3.35;;;21.80;99.90;;;;;;5082240;28;20218;-74
2023/08/18 00:13:40;;;;;;;4.15;3.33;;;21.80;99.90;;;;;;5091544;28;20258;-74
2023/08/18 00:16:10;;;;;;;7.60;3.50;;;21.80;99.90;;;;;;5091215;28;20253;-74
2023/08/18 00:18:37;;;;;;;5.68;3.90;;;21.70;99.90;;;;;;5091561;28;20214;-73
2023/08/18 00:21:05;;;;;;;5.80;3.72;;;21.70;99.90;;;;;;5086849;28;20273;-73
2023/08/18 00:23:33;;;;;;;7.50;3.92;;;21.70;99.90;;;;;;5070645;28;20277;-73
2023/08/18 00:26:01;;;;;;;7.70;3.63;;;21.70;99.90;;;;;;5069205;28;20247;-73
2023/08/18 00:28:29;;;;;;;3.72;3.53;;;21.70;99.90;;;;;;5070618;28;20289;-70
2023/08/18 00:30:57;;;;;;;4.13;3.70;;;21.70;99.90;;;;;;5070495;28;20714;-70
2023/08/18 00:33:26;;;;;;;7.82;3.55;;;21.60;99.90;;;;;;5069064;28;20215;-70
2023/08/18 00:35:54;;;;;;;4.68;3.97;;;21.60;99.90;;;;;;5064389;28;20201;-72
2023/08/18 00:38:22;;;;;;;3.88;3.67;;;21.60;99.90;;;;;;5071626;28;20708;-71
2023/08/18 00:40:50;;;;;;;3.72;3.35;;;21.60;99.90;;;;;;5075387;28;20274;-74
2023/08/18 00:43:17;;;;;;;4.28;3.95;;;21.60;99.90;;;;;;5069206;28;20250;-74
2023/08/18 00:45:45;;;;;;;4.95;3.80;;;21.60;99.90;;;;;;5069438;28;20221;-74
2023/08/18 00:48:13;;;;;;;6.60;3.67;;;21.50;99.90;;;;;;5067336;28;20296;-74
2023/08/18 00:50:43;;;;;;;4.13;3.78;;;21.50;99.90;;;;;;5069068;28;20228;-74
2023/08/18 00:53:10;;;;;;;4.10;3.90;;;21.50;99.90;;;;;;5070412;28;20209;-74
2023/08/18 00:55:38;;;;;;;5.68;4.47;;;21.50;99.90;;;;;;5073762;28;20628;-75
2023/08/18 00:58:07;;;;;;;3.85;3.35;;;21.50;99.90;;;;;;5074961;28;20303;-74
2023/08/18 01:00:35;;;;;;;4.20;3.35;;;21.40;99.90;;;;;;5074973;28;20267;-74
2023/08/18 01:03:04;;;;;;;4.22;3.80;;;21.40;99.90;;;;;;5093715;28;20231;-74
2023/08/18 01:05:32;;;;;;;6.13;4.55;;;21.40;99.90;;;;;;5094537;28;20204;-74
2023/08/18 01:08:02;;;;;;;7.38;4.15;;;21.40;99.90;;;;;;5095081;28;20234;-72
2023/08/18 01:10:31;;;;;;;5.30;4.13;;;21.40;99.90;;;;;;5094717;28;20224;-72
2023/08/18 01:13:05;;;;;;;6.30;4.07;;;21.40;99.90;;;;;;5080652;28;20290;-72
2023/08/18 01:15:35;;;;;;;7.22;4.22;;;21.30;99.90;;;;;;5074116;28;20267;-74
2023/08/18 01:18:04;;;;;;;6.28;4.05;;;21.30;99.90;;;;;;5075939;28;20547;-74
2023/08/18 01:20:32;;;;;;;6.70;4.63;;;21.30;99.90;;;;;;5094305;28;20277;-74
2023/08/18 01:23:01;;;;;;;7.40;3.97;;;21.30;99.90;;;;;;5094683;28;20634;-74
2023/08/18 01:25:29;;;;;;;4.63;4.25;;;21.20;99.90;;;;;;5076193;28;20287;-74
2023/08/18 01:27:59;;;;;;;6.35;4.00;;;21.20;99.90;;;;;;5072278;28;20246;-75
2023/08/18 01:30:31;;;;;;;5.78;4.03;;;21.20;99.90;;;;;;5073269;28;20270;-74
2023/08/18 01:33:02;;;;;;;6.00;4.22;;;21.20;99.90;;;;;;5073906;28;20208;-73
2023/08/18 01:35:30;;;;;;;6.88;4.55;;;21.20;99.90;;;;;;5072516;28;20724;-73
2023/08/18 01:37:59;;;;;;;4.97;4.30;;;21.20;99.90;;;;;;5073996;28;20205;-73
2023/08/18 01:40:29;;;;;;;5.53;4.75;;;21.20;99.90;;;;;;5072098;28;20725;-74
2023/08/18 01:42:58;;;;;;;4.60;4.38;;;21.20;99.90;;;;;;5070414;28;20259;-74
2023/08/18 01:45:26;;;;;;;5.20;4.65;;;21.20;99.90;;;;;;5072423;28;20200;-73
2023/08/18 01:47:53;;;;;;;6.00;4.53;;;21.10;99.90;;;;;;5072718;28;20205;-74
2023/08/18 01:50:21;;;;;;;5.45;4.70;;;21.10;99.90;;;;;;5070326;28;20224;-74
2023/08/18 01:52:49;;;;;;;5.78;4.75;;;21.10;99.90;;;;;;5072661;28;20296;-74
2023/08/18 01:55:17;;;;;;;5.07;4.63;;;21.00;99.90;;;;;;5072319;28;20717;-74
2023/08/18 01:57:46;;;;;;;5.88;5.00;;;21.00;99.90;;;;;;5073090;28;20725;-75
2023/08/18 02:00:14;;;;;;;6.63;5.10;;;21.00;99.90;;;;;;5073526;28;20285;-74
2023/08/18 02:02:48;;;;;;;5.68;5.15;;;20.90;99.90;;;;;;5073989;28;20240;-75
2023/08/18 02:05:16;;;;;;;6.60;5.07;;;20.90;99.90;;;;;;5073344;28;20228;-73
2023/08/18 02:07:44;;;;;;;6.07;4.80;;;20.90;99.90;;;;;;5073896;28;20258;-74
2023/08/18 02:10:12;;;;;;;5.20;4.70;;;20.90;99.90;;;;;;5084361;28;20712;-73
2023/08/18 02:12:40;;;;;;;12.10;4.90;;;20.90;99.90;;;;;;5089693;28;20262;-73
2023/08/18 02:15:09;;;;;;;5.32;4.82;;;20.90;99.90;;;;;;5073087;28;20228;-73
2023/08/18 02:17:37;;;;;;;5.80;5.30;;;20.90;99.90;;;;;;5073393;28;20215;-73
2023/08/18 02:20:08;;;;;;;5.82;5.32;;;20.90;99.90;;;;;;5073858;28;20235;-73
2023/08/18 02:22:36;;;;;;;5.32;4.80;;;20.90;99.90;;;;;;5073298;28;20575;-73
2023/08/18 02:25:05;;;;;;;7.78;4.70;;;20.90;99.90;;;;;;5073189;28;20285;-73
2023/08/18 02:27:33;;;;;;;5.13;4.72;;;20.90;99.90;;;;;;5072419;28;20254;-73
2023/08/18 02:30:01;;;;;;;4.65;4.30;;;20.90;99.90;;;;;;5070939;28;20220;-73
2023/08/18 02:32:30;;;;;;;4.20;3.83;;;20.90;99.90;;;;;;5071352;28;20196;-73
2023/08/18 02:34:58;;;;;;;7.05;4.50;;;20.90;99.90;;;;;;5072364;28;20315;-73
2023/08/18 02:37:25;;;;;;;4.55;4.25;;;20.80;99.90;;;;;;5071495;28;20201;-73
2023/08/18 02:39:54;;;;;;;4.90;4.60;;;20.80;99.90;;;;;;5071530;28;20303;-74
2023/08/18 02:42:22;;;;;;;4.85;4.18;;;20.80;99.90;;;;;;5071175;28;20745;-74
2023/08/18 02:44:50;;;;;;;4.35;4.10;;;20.80;99.90;;;;;;5072207;28;20262;-74
2023/08/18 02:47:18;;;;;;;4.45;4.18;;;20.80;99.90;;;;;;5070746;28;20258;-74
2023/08/18 02:49:47;;;;;;;5.88;4.40;;;20.70;99.90;;;;;;5107074;22;20694;-60
2023/08/18 02:52:15;;;;;;;4.47;4.13;;;20.70;99.90;;;;;;5112460;28;20667;-60
2023/08/18 02:54:43;;;;;;;4.82;3.67;;;20.70;99.90;;;;;;5112383;28;20207;-61
2023/08/18 02:57:11;;;;;;;6.70;4.30;;;20.70;99.90;;;;;;5099061;28;20291;-60
2023/08/18 02:59:39;;;;;;;4.47;3.95;;;20.60;99.90;;;;;;5101165;28;20246;-60
2023/08/18 03:02:07;;;;;;;6.82;4.30;;;20.60;99.90;;;;;;5105247;28;20283;-60
2023/08/18 03:04:34;;;;;;;6.85;4.05;;;20.50;99.90;;;;;;5103992;28;20231;-60
2023/08/18 03:07:04;;;;;;;4.68;4.20;;;20.50;99.90;;;;;;5103756;28;20231;-60
2023/08/18 03:09:33;;;;;;;8.05;4.55;;;20.50;99.90;;;;;;5111401;28;20218;-61
2023/08/18 03:12:01;;;;;;;4.90;4.57;;;20.40;99.90;;;;;;5100048;28;20695;-61
2023/08/18 03:14:28;;;;;;;5.07;4.68;;;20.40;99.90;;;;;;5105045;28;20199;-60
2023/08/18 03:16:56;;;;;;;4.82;4.38;;;20.40;99.90;;;;;;5111976;28;20291;-60
2023/08/18 03:19:24;;;;;;;5.07;4.15;;;20.40;99.90;;;;;;5111677;28;20298;-60
2023/08/18 03:21:52;;;;;;;4.57;3.70;;;20.40;99.90;;;;;;5107040;28;20195;-60
2023/08/18 03:24:21;;;;;;;8.35;4.15;;;20.40;99.90;;;;;;5101959;28;20706;-60
2023/08/18 03:26:49;;;;;;;7.47;4.80;;;20.40;99.90;;;;;;5104086;28;20227;-60
2023/08/18 03:29:17;;;;;;;5.07;4.55;;;20.40;99.90;;;;;;5105261;28;20224;-60
2023/08/18 03:31:45;;;;;;;5.43;4.57;;;20.40;99.90;;;;;;5104724;28;20286;-60
2023/08/18 03:34:13;;;;;;;5.25;4.25;;;20.30;99.90;;;;;;5105984;28;20203;-60
2023/08/18 03:36:41;;;;;;;5.45;4.35;;;20.30;99.90;;;;;;5104150;28;20222;-60
2023/08/18 03:39:12;;;;;;;6.72;4.35;;;20.30;99.90;;;;;;5107425;28;20222;-60
2023/08/18 03:41:41;;;;;;;6.45;4.35;;;20.30;99.90;;;;;;5104245;28;20196;-60
2023/08/18 03:44:09;;;;;;;5.00;4.70;;;20.30;99.90;;;;;;5105046;28;20281;-60
2023/08/18 03:46:37;;;;;;;6.00;4.88;;;20.20;99.90;;;;;;5097064;28;20223;-60
2023/08/18 03:49:06;;;;;;;6.70;4.95;;;20.30;99.90;;;;;;5111309;28;20791;-60
2023/08/18 03:51:34;;;;;;;4.82;4.53;;;20.30;99.90;;;;;;5107278;28;20563;-60
2023/08/18 03:54:03;;;;;;;4.80;4.40;;;20.30;99.90;;;;;;5106844;28;20260;-60
2023/08/18 03:56:31;;;;;;;9.60;4.40;;;20.30;99.90;;;;;;5106724;28;20219;-61
2023/08/18 03:59:00;;;;;;;6.82;4.63;;;20.30;99.90;;;;;;5125705;22;20247;-55
2023/08/18 04:01:28;;;;;;;7.28;4.45;;;20.30;99.90;;;;;;5111892;28;20719;-53
2023/08/18 04:03:59;;;;;;;6.55;4.43;;;20.30;99.90;;;;;;5112157;28;20638;-53
2023/08/18 04:06:27;;;;;;;8.02;4.47;;;20.30;99.90;;;;;;5111785;28;20206;-56
2023/08/18 04:09:03;;;;;;;9.73;5.15;;;20.20;99.90;;;;;;5102875;28;20631;-59
2023/08/18 04:11:31;;;;;;;10.98;4.40;;;20.20;99.90;;;;;;5091727;28;20286;-57
2023/08/18 04:14:00;;;;;;;13.30;4.35;;;20.20;99.90;;;;;;5101242;28;20717;-59
2023/08/18 04:16:27;;;;;;;7.38;4.82;;;20.10;99.90;;;;;;5108668;28;21234;-55
2023/08/18 04:18:55;;;;;;;10.50;4.55;;;20.10;99.90;;;;;;5108032;28;20253;-58
2023/08/18 04:21:23;;;;;;;6.75;4.78;;;20.10;99.90;;;;;;5112130;28;20257;-54
2023/08/18 04:23:51;;;;;;;6.07;4.95;;;20.10;99.90;;;;;;5111947;28;20734;-57
2023/08/18 04:26:19;;;;;;;8.68;5.10;;;20.10;99.90;;;;;;5100127;28;20654;-54
2023/08/18 04:28:47;;;;;;;9.13;5.05;;;20.00;99.90;;;;;;5111969;28;20287;-54
2023/08/18 04:31:16;;;;;;;5.25;4.85;;;20.10;99.90;;;;;;5101368;27;20207;-53
2023/08/18 04:33:44;;;;;;;7.43;4.93;;;20.00;99.90;;;;;;5102238;28;20207;-53
2023/08/18 04:36:12;;;;;;;5.28;4.05;;;20.00;99.90;;;;;;5099198;28;20311;-55
2023/08/18 04:38:40;;;;;;;8.05;4.15;;;20.00;99.90;;;;;;5097136;28;20727;-55
2023/08/18 04:41:09;;;;;;;5.22;4.68;;;20.10;99.90;;;;;;5103516;28;20239;-57
2023/08/18 04:43:37;;;;;;;6.55;5.32;;;20.10;99.90;;;;;;5101390;28;20658;-52
2023/08/18 04:46:05;;;;;;;7.10;4.65;;;20.20;99.90;;;;;;5098906;28;20278;-53
2023/08/18 04:48:34;;;;;;;4.95;4.38;;;20.30;99.90;;;;;;5107455;28;20231;-53
2023/08/18 04:51:02;;;;;;;7.15;5.03;;;20.30;99.90;;;;;;5107406;28;20278;-55
2023/08/18 04:53:30;;;;;;;5.22;4.75;;;20.30;99.90;;;;;;5115506;28;20697;-53
2023/08/18 04:55:57;;;;;;;7.80;4.40;;;20.40;99.90;;;;;;5109940;28;20245;-53
2023/08/18 04:58:25;;;;;;;5.13;4.68;;;20.40;99.90;;;;;;5103820;27;20270;-52
2023/08/18 05:00:53;;;;;;;5.22;4.75;;;20.40;99.90;;;;;;5115138;28;20290;-54
2023/08/18 05:03:21;;;;;;;8.18;5.00;;;20.40;99.90;;;;;;5112803;28;20218;-53
2023/08/18 05:06:00;;;;;;;9.48;5.88;;;20.40;99.90;;;;;;5113788;28;20287;-53
2023/08/18 05:08:28;;;;;;;13.40;5.97;;;20.40;99.90;;;;;;5111993;28;20262;-53
2023/08/18 05:10:57;;;;;;;6.47;5.22;;;20.50;99.90;;;;;;5115212;28;20195;-53
2023/08/18 05:13:24;;;;;;;5.15;4.68;;;20.50;99.90;;;;;;5115089;28;20691;-56
2023/08/18 05:15:53;;;;;;;6.63;5.05;;;20.50;99.90;;;;;;5114444;28;20653;-55
2023/08/18 05:18:21;;;;;;;6.85;5.60;;;20.50;99.90;;;;;;5115067;28;20258;-55
2023/08/18 05:20:49;;;;;;;8.05;5.35;;;20.50;99.90;;;;;;5112416;28;20573;-59
2023/08/18 05:23:19;;;;;;;10.57;5.40;;;20.50;99.90;;;;;;5106627;28;20231;-57
2023/08/18 05:25:48;;;;;;;7.68;5.45;;;20.70;99.90;;;;;;5114690;28;20231;-56
2023/08/18 05:28:16;;;;;;;9.88;4.85;;;20.90;99.90;;;;;;5114857;28;20227;-58
2023/08/18 05:30:46;;;;;;;8.05;5.13;;;21.00;99.90;;;;;;5114960;28;20242;-58
2023/08/18 05:33:14;;;;;;;5.30;4.80;;;21.10;99.90;;;;;;5114932;28;20698;-58
2023/08/18 05:35:42;;;;;;;9.75;5.75;;;21.20;99.90;;;;;;5114714;28;20294;-58
2023/08/18 05:38:11;;;;;;;7.50;4.80;;;21.20;99.90;;;;;;5114225;28;20235;-57
2023/08/18 05:40:42;;;;;;;7.35;5.28;;;21.20;99.90;;;;;;5114673;28;20294;-56
2023/08/18 05:43:11;;;;;;;5.97;5.25;;;21.30;99.90;;;;;;5114703;28;20207;-58
2023/08/18 05:45:38;;;;;;;6.15;5.15;;;21.20;99.90;;;;;;5114462;28;20757;-57
2023/08/18 05:48:07;;;;;;;5.32;4.80;;;21.10;99.90;;;;;;5114322;28;20219;-57
2023/08/18 05:50:35;;;;;;;5.43;4.63;;;21.10;99.90;;;;;;5114619;28;20199;-58
2023/08/18 05:53:03;;;;;;;7.63;5.28;;;21.10;99.90;;;;;;5114862;28;20208;-56
2023/08/18 05:55:31;;;;;;;5.70;5.20;;;21.10;99.90;;;;;;5114063;28;20260;-60
2023/08/18 05:58:01;;;;;;;9.25;5.38;;;21.10;99.90;;;;;;5114180;28;20231;-60
2023/08/18 06:00:29;;;;;;;6.03;5.50;;;21.10;99.90;;;;;;5114009;28;20297;-59
2023/08/18 06:02:57;;;;;;;7.40;4.60;;;21.00;99.90;;;;;;5114336;28;20733;-60
2023/08/18 06:05:27;;;;;;;5.82;4.88;;;20.90;99.90;;;;;;5114036;28;20203;-59
2023/08/18 06:07:55;;;;;;;8.75;5.03;;;20.80;99.90;;;;;;5114304;28;20251;-60
2023/08/18 06:10:23;;;;;;;8.10;5.32;;;20.80;99.90;;;;;;5114141;28;20665;-60
2023/08/18 06:12:51;;;;;;;5.65;5.07;;;20.80;99.90;;;;;;5114184;28;20241;-59
2023/08/18 06:15:21;;;;;;;5.55;5.10;;;20.80;99.90;;;;;;5113641;28;20260;-60
2023/08/18 06:17:49;;;;;;;8.55;5.15;;;20.80;99.90;;;;;;5114256;28;20231;-60
2023/08/18 06:20:17;;;;;;;7.20;5.57;;;20.80;99.90;;;;;;5114095;28;20233;-61
2023/08/18 06:22:45;;;;;;;7.28;4.93;;;20.80;99.90;;;;;;5114296;28;20210;-61
2023/08/18 06:25:13;;;;;;;8.60;5.75;;;20.80;99.90;;;;;;5113377;28;20293;-61
2023/08/18 06:27:41;;;;;;;6.45;4.90;;;20.90;99.90;;;;;;5113665;28;20235;-61
2023/08/18 06:30:11;;;;;;;9.05;5.13;;;20.90;99.90;;;;;;5113724;28;20944;-60
2023/08/18 06:32:40;;;;;;;9.02;5.45;;;20.90;99.90;;;;;;5114134;28;20294;-61
2023/08/18 06:35:09;;;;;;;5.95;5.13;;;20.90;99.90;;;;;;5113515;28;20212;-61
2023/08/18 06:37:36;;;;;;;7.22;5.15;;;21.00;99.90;;;;;;5113524;28;20314;-60
2023/08/18 06:40:05;;;;;;;9.55;5.05;;;21.00;99.90;;;;;;5113431;28;20210;-61
2023/08/18 06:42:33;;;;;;;7.95;5.15;;;21.00;99.90;;;;;;5113634;28;20622;-62
2023/08/18 06:45:01;;;;;;;5.60;4.50;;;21.10;99.90;;;;;;5112954;28;20720;-61
2023/08/18 06:47:29;;;;;;;6.85;5.10;;;21.10;99.90;;;;;;5113644;28;20202;-61
2023/08/18 06:50:01;;;;;;;9.02;5.43;;;21.10;99.90;;;;;;5112368;28;20249;-61
2023/08/18 06:52:29;;;;;;;5.18;4.65;;;21.20;99.90;;;;;;5113952;28;20196;-61
2023/08/18 06:54:57;;;;;;;8.25;5.10;;;21.30;99.90;;;;;;5113482;28;20207;-61
2023/08/18 06:57:26;;;;;;;10.52;4.50;;;21.30;99.90;;;;;;5113281;28;20218;-61
2023/08/18 06:59:54;;;;;;;7.55;5.10;;;21.40;99.90;;;;;;5113266;28;20652;-61
2023/08/18 07:02:22;;;;;;;6.93;4.88;;;21.40;99.90;;;;;;5113441;28;20234;-61
2023/08/18 07:04:50;;;;;;;6.00;4.60;;;21.60;99.90;;;;;;5112740;28;20803;-61
2023/08/18 07:07:19;;;;;;;5.57;5.18;;;21.60;99.90;;;;;;5113038;28;20911;-61
2023/08/18 07:09:49;;;;;;;4.68;4.38;;;21.70;99.90;;;;;;5113089;28;20258;-61
2023/08/18 07:12:17;;;;;;;6.25;4.63;;;21.70;99.90;;;;;;5113078;28;20207;-61
2023/08/18 07:14:44;;;;;;;6.00;4.63;;;21.80;99.90;;;;;;5112820;28;20290;-61
2023/08/18 07:17:12;;;;;;;6.97;4.88;;;21.80;99.90;;;;;;5112558;28;20643;-61
2023/08/18 07:19:40;;;;;;;5.43;4.60;;;21.90;99.90;;;;;;5112737;28;20757;-61
2023/08/18 07:22:08;;;;;;;9.50;5.35;;;22.00;99.90;;;;;;5112947;28;20263;-61
2023/08/18 07:24:37;;;;;;;6.75;4.65;;;22.10;99.90;;;;;;5112694;28;20332;-61
2023/08/18 07:27:05;;;;;;;9.90;5.20;;;22.10;99.90;;;;;;5112538;28;20671;-61
2023/08/18 07:29:34;;;;;;;10.25;4.97;;;22.10;99.90;;;;;;5112532;28;20310;-61
2023/08/18 07:32:02;;;;;;;6.03;4.93;;;22.20;99.90;;;;;;5112437;28;20245;-61
2023/08/18 07:34:30;;;;;;;6.55;4.28;;;22.30;99.90;;;;;;5112797;28;20298;-61
2023/08/18 07:36:58;;;;;;;7.72;5.00;;;22.40;99.90;;;;;;5112442;28;20272;-61
2023/08/18 07:39:26;;;;;;;4.68;4.28;;;22.40;99.90;;;;;;5112535;28;20676;-60
2023/08/18 07:41:55;;;;;;;9.73;4.45;;;22.50;99.90;;;;;;5112507;28;20243;-61
2023/08/18 07:44:23;;;;;;;11.65;4.60;;;22.50;99.90;;;;;;5112391;28;20275;-61
2023/08/18 07:46:51;;;;;;;7.32;5.32;;;22.60;99.90;;;;;;5111792;28;20688;-61
2023/08/18 07:49:20;;;;;;;9.63;5.07;;;22.70;99.90;;;;;;5112359;28;20226;-60
2023/08/18 07:51:47;;;;;;;5.80;4.30;;;22.80;99.90;;;;;;5112248;28;20207;-60
2023/08/18 07:54:16;;;;;;;9.75;5.18;;;22.80;99.90;;;;;;5112369;28;20245;-61
2023/08/18 07:56:44;;;;;;;7.80;4.47;;;22.90;99.90;;;;;;5112209;28;20227;-61
2023/08/18 07:59:14;;;;;;;5.57;4.65;;;23.00;99.90;;;;;;5112010;28;20227;-61
2023/08/18 08:01:42;;;;;;;7.45;4.82;;;23.10;99.90;;;;;;5113615;27;20227;-61
2023/08/18 08:04:10;;;;;;;10.27;4.65;;;23.10;99.90;;;;;;5105141;28;20422;-61
2023/08/18 08:06:38;;;;;;;9.02;4.50;;;23.20;99.90;;;;;;5091714;28;20210;-61
2023/08/18 08:09:06;;;;;;;7.85;5.38;;;23.30;99.90;;;;;;5091796;28;20595;-60
2023/08/18 08:11:34;;;;;;;4.55;4.15;;;23.40;99.90;;;;;;5100403;28;20234;-60
2023/08/18 08:14:02;;;;;;;7.55;4.05;;;23.40;99.90;;;;;;5107067;28;20249;-61
2023/08/18 08:16:35;;;;;;;5.38;4.20;;;23.50;99.90;;;;;;5107261;28;20239;-61
2023/08/18 08:19:04;;;;;;;5.85;3.80;;;23.60;99.90;;;;;;5108270;28;20241;-61
2023/08/18 08:21:32;;;;;;;5.20;4.43;;;23.70;99.90;;;;;;5097408;28;20724;-60
2023/08/18 08:24:04;;;;;;;7.95;4.20;;;23.80;99.90;;;;;;5111912;28;20233;-61
2023/08/18 08:26:32;;;;;;;5.70;3.85;;;23.80;99.90;;;;;;5108509;28;20203;-60
2023/08/18 08:29:00;;;;;;;6.78;4.90;;;23.90;99.90;;;;;;5122346;28;20283;-60
2023/08/18 08:31:28;;;;;;;9.48;4.50;;;24.00;99.90;;;;;;5109430;28;20204;-61
2023/08/18 08:33:57;;;;;;;7.18;3.97;;;24.10;99.90;;;;;;5111880;28;20199;-60
2023/08/18 08:36:32;;;;;;;5.25;3.60;;;24.20;99.90;;;;;;5111490;28;20294;-60
2023/08/18 08:39:00;;;;;;;7.45;4.10;;;24.30;99.90;;;;;;5111765;28;20266;-60
2023/08/18 08:41:28;;;;;;;7.15;3.80;;;24.50;99.90;;;;;;5106774;28;20230;-61
2023/08/18 08:43:56;;;;;;;7.53;3.63;;;24.50;99.90;;;;;;5105836;28;20239;-61
2023/08/18 08:46:24;;;;;;;9.98;4.10;;;24.60;99.90;;;;;;5111449;28;20260;-61
2023/08/18 08:48:52;;;;;;;8.73;3.80;;;24.70;99.90;;;;;;5111707;28;20284;-61
2023/08/18 08:51:22;;;;;;;4.80;4.35;;;24.80;99.90;;;;;;5105413;28;20212;-61
2023/08/18 08:53:51;;;;;;;4.57;3.75;;;24.80;99.90;;;;;;5111861;28;20275;-60
2023/08/18 08:56:19;;;;;;;5.10;3.47;;;24.90;99.90;;;;;;5110615;28;20252;-60
2023/08/18 08:58:47;;;;;;;7.28;3.78;;;24.90;99.90;;;;;;5109162;28;20223;-61
2023/08/18 09:01:15;;;;;;;5.70;3.70;;;25.00;99.90;;;;;;5100500;28;20262;-61
2023/08/18 09:03:43;;;;;;;6.18;3.45;;;25.20;99.90;;;;;;5095843;28;20211;-61
2023/08/18 09:06:13;;;;;;;6.57;3.75;;;25.20;99.90;;;;;;5110948;28;20211;-61
2023/08/18 09:08:42;;;;;;;3.95;3.58;;;25.30;99.90;;;;;;5111644;28;20300;-60
2023/08/18 09:11:10;;;;;;;11.18;4.03;;;25.40;99.90;;;;;;5111362;28;20256;-61
2023/08/18 09:13:39;;;;;;;7.85;3.63;;;25.50;99.90;;;;;;5114539;28;20211;-61
2023/08/18 09:16:07;;;;;;;4.88;3.35;;;25.70;99.90;;;;;;5114991;28;20252;-61
2023/08/18 09:18:35;;;;;;;9.52;3.50;;;25.80;99.90;;;;;;5114977;28;20234;-60
2023/08/18 09:21:04;;;;;;;5.10;3.45;;;25.90;99.90;;;;;;5115029;28;20694;-60
2023/08/18 09:23:32;;;;;;;4.38;3.90;;;26.00;99.90;;;;;;5115424;28;20214;-60
2023/08/18 09:26:04;;;;;;;7.43;3.50;;;26.10;99.90;;;;;;5114513;28;20675;-60
2023/08/18 09:28:33;;;;;;;3.50;3.28;;;26.30;99.90;;;;;;5114993;28;20223;-61
2023/08/18 09:31:00;;;;;;;5.50;3.75;;;26.50;99.90;;;;;;5113678;28;20302;-61
2023/08/18 09:33:30;;;;;;;8.20;3.40;;;26.60;99.90;;;;;;5115024;28;20226;-61
2023/08/18 09:36:01;;;;;;;4.32;3.35;;;26.80;99.90;;;;;;5114765;28;20298;-61
2023/08/18 09:38:30;;;;;;;6.07;3.58;;;26.90;99.90;;;;;;5114851;28;20227;-61
2023/08/18 09:41:04;;;;;;;3.58;3.28;;;27.00;99.90;;;;;;5114944;28;20754;-61
2023/08/18 09:43:32;;;;;;;3.55;3.20;;;27.20;99.90;;;;;;5114858;28;20228;-60
2023/08/18 09:46:03;;;;;;;4.00;3.63;;;27.30;99.90;;;;;;5114229;28;20735;-61
2023/08/18 09:48:34;;;;;;;4.65;3.33;;;27.50;99.90;;;;;;5114551;27;20607;-61
2023/08/18 09:51:01;;;;;;;3.63;3.42;;;27.70;99.90;;;;;;5114630;28;20226;-61
2023/08/18 09:53:31;;;;;;;3.40;3.10;;;27.80;99.90;;;;;;5114956;28;20199;-60
2023/08/18 09:56:03;;;;;;;4.13;3.70;;;28.10;99.90;;;;;;5114288;28;20245;-61
2023/08/18 09:58:36;;;;;;;3.88;3.58;;;28.30;99.90;;;;;;5120905;22;20255;-65
2023/08/18 10:01:05;;;;;;;7.05;3.55;;;28.40;99.90;;;;;;5073451;28;20219;-65
2023/08/18 10:03:34;;;;;;;3.60;3.30;;;28.40;99.90;;;;;;5073932;28;20247;-65
2023/08/18 10:06:01;;;;;;;4.70;2.95;;;28.40;99.90;;;;;;5073363;28;20721;-65
2023/08/18 10:08:31;;;;;;;3.67;3.40;;;28.50;99.90;;;;;;5073692;28;20323;-65
2023/08/18 10:10:59;;;;;;;6.78;3.10;;;28.70;99.90;;;;;;5073525;28;20271;-66
2023/08/18 10:13:29;;;;;;;8.68;3.33;;;28.90;99.90;;;;;;5073714;28;20208;-66
2023/08/18 10:15:58;;;;;;;3.60;3.28;;;29.10;99.90;;;;;;5073133;28;20723;-65
2023/08/18 10:18:26;;;;;;;4.68;3.53;;;29.40;99.90;;;;;;5072868;28;20786;-65
2023/08/18 10:20:54;;;;;;;8.70;3.33;;;29.60;99.90;;;;;;5073008;28;20315;-65
2023/08/18 10:23:24;;;;;;;5.88;4.32;;;29.80;99.90;;;;;;5072639;28;20240;-65
2023/08/18 10:25:52;;;;;;;4.80;3.20;;;30.10;99.90;;;;;;5072471;28;20291;-65
2023/08/18 10:28:20;;;;;;;4.65;3.22;;;30.30;99.90;;;;;;5073327;28;20283;-66
2023/08/18 10:30:52;;;;;;;4.15;3.05;;;30.50;99.90;;;;;;5073008;28;20197;-66
2023/08/18 10:33:31;;;;;;;5.78;3.30;;;30.70;99.90;;;;;;5073163;28;20240;-66
2023/08/18 10:36:01;;;;;;;3.88;3.30;;;30.90;99.90;;;;;;5073079;28;20250;-65
2023/08/18 10:38:29;;;;;;;6.93;3.35;;;31.00;99.90;;;;;;5073203;28;20256;-66
2023/08/18 10:40:57;;;;;;;8.52;3.78;;;31.10;99.90;;;;;;5072801;28;20224;-66
2023/08/18 10:43:26;;;;;;;4.15;3.75;;;31.30;99.90;;;;;;5073120;28;20236;-65
2023/08/18 10:45:57;;;;;;;6.20;3.33;;;31.50;99.90;;;;;;5072198;28;20209;-65
2023/08/18 10:48:30;;;;;;;4.22;3.40;;;31.70;99.90;;;;;;5072815;28;20698;-65
2023/08/18 10:50:58;;;;;;;5.50;3.13;;;31.90;99.90;;;;;;5072810;28;20292;-65
2023/08/18 10:53:26;;;;;;;4.97;2.63;;;32.10;99.90;;;;;;5072850;28;20236;-65
2023/08/18 10:55:54;;;;;;;4.72;3.08;;;32.20;99.90;;;;;;5072343;28;20204;-66
2023/08/18 10:58:22;;;;;;;3.50;3.20;;;32.40;99.90;;;;;;5072416;28;20298;-65
2023/08/18 11:00:50;;;;;;;7.82;3.15;;;32.50;99.90;;;;;;5072619;28;20224;-65
2023/08/18 11:03:19;;;;;;;5.70;3.30;;;32.30;99.90;;;;;;5072529;28;20664;-66
2023/08/18 11:05:48;;;;;;;3.42;3.13;;;32.30;99.90;;;;;;5072391;28;20274;-65
2023/08/18 11:08:16;;;;;;;3.75;3.42;;;32.40;99.90;;;;;;5072310;28;20256;-65
2023/08/18 11:10:44;;;;;;;3.53;3.00;;;32.60;99.90;;;;;;5072272;28;20636;-65
2023/08/18 11:13:13;;;;;;;5.25;3.05;;;32.90;99.90;;;;;;5072129;28;20667;-65
2023/08/18 11:15:42;;;;;;;3.33;2.97;;;33.20;99.90;;;;;;5071376;28;20205;-65
2023/08/18 11:18:10;;;;;;;6.60;2.92;;;33.40;99.90;;;;;;5072211;28;20211;-65
2023/08/18 11:20:38;;;;;;;7.65;3.58;;;33.50;99.90;;;;;;5072181;28;20224;-65
2023/08/18 11:23:07;;;;;;;4.78;3.28;;;33.70;99.90;;;;;;5072058;28;20244;-65
2023/08/18 11:25:35;;;;;;;7.10;3.25;;;33.30;99.90;;;;;;5071989;28;20221;-65
2023/08/18 11:28:04;;;;;;;3.40;3.00;;;33.20;99.90;;;;;;5071874;28;20208;-66
2023/08/18 11:30:33;;;;;;;4.15;3.10;;;33.30;99.90;;;;;;5070146;28;20255;-65
2023/08/18 11:33:00;;;;;;;5.72;3.30;;;33.60;99.90;;;;;;5071362;28;20636;-65
2023/08/18 11:35:30;;;;;;;3.72;3.03;;;33.80;99.90;;;;;;5070463;28;20205;-66
2023/08/18 11:37:58;;;;;;;3.88;2.88;;;33.80;99.90;;;;;;5071623;28;20232;-66
2023/08/18 11:40:28;;;;;;;5.28;2.90;;;33.80;99.90;;;;;;5071702;28;20257;-65
2023/08/18 11:42:57;;;;;;;7.10;3.10;;;33.90;99.90;;;;;;5071973;28;20240;-66
2023/08/18 11:45:26;;;;;;;5.03;3.25;;;34.20;99.90;;;;;;5071807;28;20208;-65
2023/08/18 11:48:03;;;;;;;6.35;3.10;;;34.50;99.90;;;;;;5071521;28;20730;-66
2023/08/18 11:50:32;;;;;;;3.30;3.00;;;34.90;99.90;;;;;;5071761;28;20201;-66
2023/08/18 11:53:00;;;;;;;3.92;3.50;;;34.90;99.90;;;;;;5071863;28;20205;-65
2023/08/18 11:55:34;;;;;;;6.13;3.08;;;35.00;99.90;;;;;;5071860;28;20209;-65
2023/08/18 11:58:07;;;;;;;3.72;2.90;;;35.20;99.90;;;;;;5071878;28;20204;-65
2023/08/18 12:00:36;;;;;;;4.10;3.10;;;35.40;99.90;;;;;;5071669;28;20235;-66
2023/08/18 12:03:05;;;;;;;5.97;2.83;;;35.60;99.90;;;;;;5071418;28;20298;-66
2023/08/18 12:05:35;;;;;;;3.30;2.80;;;35.70;99.90;;;;;;5071617;28;20208;-66
2023/08/18 12:08:08;;;;;;;4.63;3.00;;;35.60;99.90;;;;;;5071146;28;20291;-66
2023/08/18 12:10:38;;;;;;;6.25;3.05;;;35.80;99.90;;;;;;5071961;28;20272;-66
2023/08/18 12:13:06;;;;;;;6.75;3.13;;;35.90;99.90;;;;;;5071503;28;20236;-65
2023/08/18 12:15:34;;;;;;;4.85;2.97;;;36.10;99.90;;;;;;5071175;28;20212;-65
2023/08/18 12:18:02;;;;;;;6.75;2.92;;;36.20;99.90;;;;;;5071733;28;20227;-66
2023/08/18 12:20:31;;;;;;;5.60;3.05;;;36.10;99.90;;;;;;5071501;28;20228;-66
2023/08/18 12:22:59;;;;;;;4.75;3.00;;;36.10;99.90;;;;;;5071578;28;20644;-66
2023/08/18 12:25:27;;;;;;;6.43;3.08;;;36.20;99.90;;;;;;5071269;28;20208;-66
2023/08/18 12:27:56;;;;;;;4.55;3.17;;;36.50;99.90;;;;;;5071111;28;20239;-65
2023/08/18 12:30:24;;;;;;;9.90;3.30;;;36.70;99.90;;;;;;5071490;28;20258;-66
2023/08/18 12:32:52;;;;;;;4.20;2.80;;;36.90;99.90;;;;;;5071380;28;20273;-66
2023/08/18 12:35:20;;;;;;;3.35;3.08;;;36.80;99.90;;;;;;5071304;28;20274;-66
2023/08/18 12:37:49;;;;;;;5.68;3.15;;;36.80;99.90;;;;;;5071264;28;20261;-66
2023/08/18 12:40:17;;;;;;;5.72;3.13;;;36.60;99.90;;;;;;5070907;28;20231;-66
2023/08/18 12:42:45;;;;;;;4.57;3.33;;;36.10;99.90;;;;;;5070988;28;20235;-66
2023/08/18 12:45:14;;;;;;;4.47;3.20;;;36.10;99.90;;;;;;5070940;28;20228;-66
2023/08/18 12:47:42;;;;;;;3.38;2.80;;;36.30;99.90;;;;;;5072461;28;20303;-66
2023/08/18 12:50:10;;;;;;;4.18;2.92;;;36.70;99.90;;;;;;5075062;28;20231;-66
2023/08/18 12:52:42;;;;;;;10.32;2.85;;;36.80;99.90;;;;;;5074950;28;20715;-66